sensor_id;sensor_type;location;lat;lon;timestamp;temperature;humidity
34099;DHT22;20374;49.474;10.944;2023-07-20T00:00:06;17.40;99.90
34099;DHT22;20374;49.474;10.944;2023-07-20T00:02:39;17.40;99.90
34099;DHT22;20374;49.474;10.944;2023-07-20T00:05:05;17.40;99.90
34099;DHT22;20374;49.474;10.944;2023-07-20T00:07:31;17.40;99.90
34099;DHT22;20374;49.474;10.944;2023-07-20T00:09:57;17.40;99.90
34099;DHT22;20374;49.474;10.944;2023-07-20T00:12:23;17.40;99.90
34099;DHT22;20374;49.474;10.944;2023-07-20T00:14:49;17.40;99.90
34099;DHT22;20374;49.474;10.944;2023-07-20T00:17:15;17.40;99.90
34099;DHT22;20374;49.474;10.944;2023-07-20T00:19:41;17.40;99.90
34099;DHT22;20374;49.474;10.944;2023-07-20T00:22:06;17.40;99.90
34099;DHT22;20374;49.474;10.944;2023-07-20T00:24:32;17.40;99.90
34099;DHT22;20374;49.474;10.944;2023-07-20T00:26:58;17.40;99.90
34099;DHT22;20374;49.474;10.944;2023-07-20T00:29:24;17.40;99.90
34099;DHT22;20374;49.474;10.944;2023-07-20T00:31:50;17.40;99.90
34099;DHT22;20374;49.474;10.944;2023-07-20T00:34:16;17.50;99.90
34099;DHT22;20374;49.474;10.944;2023-07-20T00:36:42;17.40;99.90
34099;DHT22;20374;49.474;10.944;2023-07-20T00:39:08;17.40;99.90
34099;DHT22;20374;49.474;10.944;2023-07-20T00:41:34;17.30;99.90
34099;DHT22;20374;49.474;10.944;2023-07-20T00:44:01;17.30;99.90
34099;DHT22;20374;49.474;10.944;2023-07-20T00:46:27;17.30;99.90
34099;DHT22;20374;49.474;10.944;2023-07-20T00:48:53;17.20;99.90
34099;DHT22;20374;49.474;10.944;2023-07-20T00:51:21;17.20;99.90
34099;DHT22;20374;49.474;10.944;2023-07-20T00:53:48;17.20;99.90
34099;DHT22;20374;49.474;10.944;2023-07-20T00:56:15;17.10;99.90
34099;DHT22;20374;49.474;10.944;2023-07-20T00:58:41;17.10;99.90
34099;DHT22;20374;49.474;10.944;2023-07-20T01:01:07;17.10;99.90
34099;DHT22;20374;49.474;10.944;2023-07-20T01:03:33;17.10;99.90
34099;DHT22;20374;49.474;10.944;2023-07-20T01:14:00;17.10;99.90
34099;DHT22;20374;49.474;10.944;2023-07-20T01:16:27;17.10;99.90
34099;DHT22;20374;49.474;10.944;2023-07-20T01:18:53;17.10;99.90
34099;DHT22;20374;49.474;10.944;2023-07-20T01:21:29;17.10;99.90
34099;DHT22;20374;49.474;10.944;2023-07-20T01:24:27;17.10;99.90
34099;DHT22;20374;49.474;10.944;2023-07-20T01:29:47;17.10;99.90
34099;DHT22;20374;49.474;10.944;2023-07-20T01:32:19;17.10;99.90
34099;DHT22;20374;49.474;10.944;2023-07-20T01:34:48;17.10;99.90
34099;DHT22;20374;49.474;10.944;2023-07-20T01:37:17;17.10;99.90
34099;DHT22;20374;49.474;10.944;2023-07-20T01:39:45;17.00;99.90
34099;DHT22;20374;49.474;10.944;2023-07-20T01:42:12;17.10;99.90
34099;DHT22;20374;49.474;10.944;2023-07-20T01:44:38;17.00;99.90
34099;DHT22;20374;49.474;10.944;2023-07-20T01:47:04;17.00;99.90
34099;DHT22;20374;49.474;10.944;2023-07-20T01:49:30;17.00;99.90
34099;DHT22;20374;49.474;10.944;2023-07-20T01:51:56;16.90;99.90
34099;DHT22;20374;49.474;10.944;2023-07-20T01:54:22;16.90;99.90
34099;DHT22;20374;49.474;10.944;2023-07-20T01:56:48;16.90;99.90
34099;DHT22;20374;49.474;10.944;2023-07-20T01:59:14;16.90;99.90
34099;DHT22;20374;49.474;10.944;2023-07-20T02:01:40;16.90;99.90
34099;DHT22;20374;49.474;10.944;2023-07-20T02:04:06;16.90;99.90
34099;DHT22;20374;49.474;10.944;2023-07-20T02:06:31;16.80;99.90
34099;DHT22;20374;49.474;10.944;2023-07-20T02:08:57;16.80;99.90
34099;DHT22;20374;49.474;10.944;2023-07-20T02:11:24;16.80;99.90
34099;DHT22;20374;49.474;10.944;2023-07-20T02:13:50;16.80;99.90
34099;DHT22;20374;49.474;10.944;2023-07-20T02:16:16;16.90;99.90
34099;DHT22;20374;49.474;10.944;2023-07-20T02:18:42;16.90;99.90
34099;DHT22;20374;49.474;10.944;2023-07-20T02:21:08;16.90;99.90
34099;DHT22;20374;49.474;10.944;2023-07-20T02:23:34;16.90;99.90
34099;DHT22;20374;49.474;10.944;2023-07-20T02:26:00;16.90;99.90
34099;DHT22;20374;49.474;10.944;2023-07-20T02:28:26;16.90;99.90
34099;DHT22;20374;49.474;10.944;2023-07-20T02:30:51;16.80;99.90
34099;DHT22;20374;49.474;10.944;2023-07-20T02:33:17;16.80;99.90
34099;DHT22;20374;49.474;10.944;2023-07-20T02:35:43;16.80;99.90
34099;DHT22;20374;49.474;10.944;2023-07-20T02:38:09;16.80;99.90
34099;DHT22;20374;49.474;10.944;2023-07-20T02:40:35;16.80;99.90
34099;DHT22;20374;49.474;10.944;2023-07-20T02:43:01;16.80;99.90
34099;DHT22;20374;49.474;10.944;2023-07-20T02:45:27;16.80;99.90
34099;DHT22;20374;49.474;10.944;2023-07-20T02:47:53;16.80;99.90
34099;DHT22;20374;49.474;10.944;2023-07-20T02:50:18;16.80;99.90
34099;DHT22;20374;49.474;10.944;2023-07-20T02:52:44;16.80;99.90
34099;DHT22;20374;49.474;10.944;2023-07-20T02:55:11;16.80;99.90
34099;DHT22;20374;49.474;10.944;2023-07-20T02:57:36;16.80;99.90
34099;DHT22;20374;49.474;10.944;2023-07-20T03:00:03;16.70;99.90
34099;DHT22;20374;49.474;10.944;2023-07-20T03:02:31;16.70;99.90
34099;DHT22;20374;49.474;10.944;2023-07-20T03:04:57;16.60;99.90
34099;DHT22;20374;49.474;10.944;2023-07-20T03:07:27;16.60;99.90
34099;DHT22;20374;49.474;10.944;2023-07-20T03:09:53;16.50;99.90
34099;DHT22;20374;49.474;10.944;2023-07-20T03:12:20;16.40;99.90
34099;DHT22;20374;49.474;10.944;2023-07-20T03:14:48;16.40;99.90
34099;DHT22;20374;49.474;10.944;2023-07-20T03:17:14;16.30;99.90
34099;DHT22;20374;49.474;10.944;2023-07-20T03:19:40;16.30;99.90
34099;DHT22;20374;49.474;10.944;2023-07-20T03:22:06;16.20;99.90
34099;DHT22;20374;49.474;10.944;2023-07-20T03:24:32;16.20;99.90
34099;DHT22;20374;49.474;10.944;2023-07-20T03:26:58;16.20;99.90
34099;DHT22;20374;49.474;10.944;2023-07-20T03:29:25;16.20;99.90
34099;DHT22;20374;49.474;10.944;2023-07-20T03:31:51;16.10;99.90
34099;DHT22;20374;49.474;10.944;2023-07-20T03:34:17;16.10;99.90
34099;DHT22;20374;49.474;10.944;2023-07-20T03:36:43;16.10;99.90
34099;DHT22;20374;49.474;10.944;2023-07-20T03:39:11;16.20;99.90
34099;DHT22;20374;49.474;10.944;2023-07-20T03:41:37;16.20;99.90
34099;DHT22;20374;49.474;10.944;2023-07-20T03:44:03;16.20;99.90
34099;DHT22;20374;49.474;10.944;2023-07-20T03:46:29;16.20;99.90
34099;DHT22;20374;49.474;10.944;2023-07-20T03:48:55;16.20;99.90
34099;DHT22;20374;49.474;10.944;2023-07-20T03:51:21;16.30;99.90
34099;DHT22;20374;49.474;10.944;2023-07-20T03:53:48;16.30;99.90
34099;DHT22;20374;49.474;10.944;2023-07-20T03:56:14;16.30;99.90
34099;DHT22;20374;49.474;10.944;2023-07-20T03:58:39;16.40;99.90
34099;DHT22;20374;49.474;10.944;2023-07-20T04:01:06;16.30;99.90
34099;DHT22;20374;49.474;10.944;2023-07-20T04:03:32;16.30;99.90
34099;DHT22;20374;49.474;10.944;2023-07-20T04:05:59;16.30;99.90
34099;DHT22;20374;49.474;10.944;2023-07-20T04:08:25;16.20;99.90
34099;DHT22;20374;49.474;10.944;2023-07-20T04:10:51;16.20;99.90
34099;DHT22;20374;49.474;10.944;2023-07-20T04:13:17;16.20;99.90
34099;DHT22;20374;49.474;10.944;2023-07-20T04:15:43;16.20;99.90
34099;DHT22;20374;49.474;10.944;2023-07-20T04:18:09;16.20;99.90
34099;DHT22;20374;49.474;10.944;2023-07-20T04:20:35;16.20;99.90
34099;DHT22;20374;49.474;10.944;2023-07-20T04:23:01;16.30;99.90
34099;DHT22;20374;49.474;10.944;2023-07-20T04:25:27;16.30;99.90
34099;DHT22;20374;49.474;10.944;2023-07-20T04:27:53;16.30;99.90
34099;DHT22;20374;49.474;10.944;2023-07-20T04:30:19;16.40;99.90
34099;DHT22;20374;49.474;10.944;2023-07-20T04:32:49;16.40;99.90
34099;DHT22;20374;49.474;10.944;2023-07-20T04:35:52;16.40;99.90
34099;DHT22;20374;49.474;10.944;2023-07-20T04:38:24;16.40;99.90
34099;DHT22;20374;49.474;10.944;2023-07-20T04:40:58;16.40;99.90
34099;DHT22;20374;49.474;10.944;2023-07-20T04:43:24;16.40;99.90
34099;DHT22;20374;49.474;10.944;2023-07-20T04:45:51;16.40;99.90
34099;DHT22;20374;49.474;10.944;2023-07-20T04:48:17;16.40;99.90
34099;DHT22;20374;49.474;10.944;2023-07-20T04:50:51;16.40;99.90
34099;DHT22;20374;49.474;10.944;2023-07-20T04:53:18;16.40;99.90
34099;DHT22;20374;49.474;10.944;2023-07-20T04:55:50;16.60;99.90
34099;DHT22;20374;49.474;10.944;2023-07-20T04:58:19;17.00;99.90
34099;DHT22;20374;49.474;10.944;2023-07-20T05:00:45;17.20;99.90
34099;DHT22;20374;49.474;10.944;2023-07-20T05:03:11;17.30;99.90
34099;DHT22;20374;49.474;10.944;2023-07-20T05:05:37;17.20;99.90
34099;DHT22;20374;49.474;10.944;2023-07-20T05:08:04;17.10;99.90
34099;DHT22;20374;49.474;10.944;2023-07-20T05:10:30;17.10;99.90
34099;DHT22;20374;49.474;10.944;2023-07-20T05:12:56;16.90;99.90
34099;DHT22;20374;49.474;10.944;2023-07-20T05:15:22;16.80;99.90
34099;DHT22;20374;49.474;10.944;2023-07-20T05:17:48;16.80;99.90
34099;DHT22;20374;49.474;10.944;2023-07-20T05:20:14;16.80;99.90
34099;DHT22;20374;49.474;10.944;2023-07-20T05:22:40;16.70;99.90
34099;DHT22;20374;49.474;10.944;2023-07-20T05:25:10;17.00;99.90
34099;DHT22;20374;49.474;10.944;2023-07-20T05:27:37;17.30;99.90
34099;DHT22;20374;49.474;10.944;2023-07-20T05:30:04;17.30;99.90
34099;DHT22;20374;49.474;10.944;2023-07-20T05:32:30;17.60;99.90
34099;DHT22;20374;49.474;10.944;2023-07-20T05:34:56;18.20;99.90
34099;DHT22;20374;49.474;10.944;2023-07-20T05:37:22;18.90;99.90
34099;DHT22;20374;49.474;10.944;2023-07-20T05:39:48;19.60;99.90
34099;DHT22;20374;49.474;10.944;2023-07-20T05:42:14;19.60;99.90
34099;DHT22;20374;49.474;10.944;2023-07-20T05:44:40;19.60;99.90
34099;DHT22;20374;49.474;10.944;2023-07-20T05:47:06;19.40;99.90
34099;DHT22;20374;49.474;10.944;2023-07-20T05:49:32;19.20;99.90
34099;DHT22;20374;49.474;10.944;2023-07-20T05:51:58;18.70;99.90
34099;DHT22;20374;49.474;10.944;2023-07-20T05:54:24;18.40;99.90
34099;DHT22;20374;49.474;10.944;2023-07-20T05:56:51;18.10;99.90
34099;DHT22;20374;49.474;10.944;2023-07-20T05:59:17;17.90;99.90
34099;DHT22;20374;49.474;10.944;2023-07-20T06:01:43;17.80;99.90
34099;DHT22;20374;49.474;10.944;2023-07-20T06:04:10;17.80;99.90
34099;DHT22;20374;49.474;10.944;2023-07-20T06:06:36;17.90;99.90
34099;DHT22;20374;49.474;10.944;2023-07-20T06:09:02;18.10;99.90
34099;DHT22;20374;49.474;10.944;2023-07-20T06:11:35;18.20;99.90
34099;DHT22;20374;49.474;10.944;2023-07-20T06:14:01;18.30;99.90
34099;DHT22;20374;49.474;10.944;2023-07-20T06:16:27;18.30;99.90
34099;DHT22;20374;49.474;10.944;2023-07-20T06:18:53;18.50;99.90
34099;DHT22;20374;49.474;10.944;2023-07-20T06:21:19;18.60;99.90
34099;DHT22;20374;49.474;10.944;2023-07-20T06:23:45;18.80;99.90
34099;DHT22;20374;49.474;10.944;2023-07-20T06:26:11;18.90;99.90
34099;DHT22;20374;49.474;10.944;2023-07-20T06:28:37;19.00;99.90
34099;DHT22;20374;49.474;10.944;2023-07-20T06:31:04;19.20;99.90
34099;DHT22;20374;49.474;10.944;2023-07-20T06:33:30;19.30;99.90
34099;DHT22;20374;49.474;10.944;2023-07-20T06:35:56;19.20;99.90
34099;DHT22;20374;49.474;10.944;2023-07-20T06:38:23;19.10;99.90
34099;DHT22;20374;49.474;10.944;2023-07-20T06:40:52;19.20;99.90
34099;DHT22;20374;49.474;10.944;2023-07-20T06:43:17;19.40;99.90
34099;DHT22;20374;49.474;10.944;2023-07-20T06:45:44;19.30;99.90
34099;DHT22;20374;49.474;10.944;2023-07-20T06:48:09;19.40;99.90
34099;DHT22;20374;49.474;10.944;2023-07-20T06:50:35;19.40;99.90
34099;DHT22;20374;49.474;10.944;2023-07-20T06:53:01;19.50;99.90
34099;DHT22;20374;49.474;10.944;2023-07-20T06:55:29;19.70;99.90
34099;DHT22;20374;49.474;10.944;2023-07-20T06:57:55;19.80;99.90
34099;DHT22;20374;49.474;10.944;2023-07-20T07:00:21;19.80;99.90
34099;DHT22;20374;49.474;10.944;2023-07-20T07:02:47;19.90;99.90
34099;DHT22;20374;49.474;10.944;2023-07-20T07:05:13;20.00;99.90
34099;DHT22;20374;49.474;10.944;2023-07-20T07:07:41;20.50;99.90
34099;DHT22;20374;49.474;10.944;2023-07-20T07:10:08;21.40;99.90
34099;DHT22;20374;49.474;10.944;2023-07-20T07:12:34;22.20;99.90
34099;DHT22;20374;49.474;10.944;2023-07-20T07:15:02;22.70;99.60
34099;DHT22;20374;49.474;10.944;2023-07-20T07:17:28;22.60;99.30
34099;DHT22;20374;49.474;10.944;2023-07-20T07:19:54;22.20;98.10
34099;DHT22;20374;49.474;10.944;2023-07-20T07:22:22;21.70;99.60
34099;DHT22;20374;49.474;10.944;2023-07-20T07:24:48;21.50;99.90
34099;DHT22;20374;49.474;10.944;2023-07-20T07:27:13;21.70;98.50
34099;DHT22;20374;49.474;10.944;2023-07-20T07:29:42;22.00;98.60
34099;DHT22;20374;49.474;10.944;2023-07-20T07:32:12;22.30;98.50
34099;DHT22;20374;49.474;10.944;2023-07-20T07:34:38;22.60;98.00
34099;DHT22;20374;49.474;10.944;2023-07-20T07:37:06;22.40;96.90
34099;DHT22;20374;49.474;10.944;2023-07-20T07:39:33;22.20;97.50
34099;DHT22;20374;49.474;10.944;2023-07-20T07:41:59;21.60;97.80
34099;DHT22;20374;49.474;10.944;2023-07-20T07:44:25;21.10;98.50
34099;DHT22;20374;49.474;10.944;2023-07-20T07:46:51;20.80;99.80
34099;DHT22;20374;49.474;10.944;2023-07-20T07:49:17;20.50;99.90
34099;DHT22;20374;49.474;10.944;2023-07-20T07:51:45;20.20;99.90
34099;DHT22;20374;49.474;10.944;2023-07-20T07:54:11;20.00;99.90
34099;DHT22;20374;49.474;10.944;2023-07-20T07:56:37;20.30;99.90
34099;DHT22;20374;49.474;10.944;2023-07-20T07:59:02;20.80;99.90
34099;DHT22;20374;49.474;10.944;2023-07-20T08:01:29;21.20;99.60
34099;DHT22;20374;49.474;10.944;2023-07-20T08:03:55;21.30;98.70
34099;DHT22;20374;49.474;10.944;2023-07-20T08:06:21;21.40;98.80
34099;DHT22;20374;49.474;10.944;2023-07-20T08:08:49;21.10;97.80
34099;DHT22;20374;49.474;10.944;2023-07-20T08:11:15;20.70;97.60
34099;DHT22;20374;49.474;10.944;2023-07-20T08:13:43;20.60;98.20
34099;DHT22;20374;49.474;10.944;2023-07-20T08:16:09;20.70;98.40
34099;DHT22;20374;49.474;10.944;2023-07-20T08:18:35;20.90;98.20
34099;DHT22;20374;49.474;10.944;2023-07-20T08:21:01;21.20;98.50
34099;DHT22;20374;49.474;10.944;2023-07-20T08:23:27;21.40;97.30
34099;DHT22;20374;49.474;10.944;2023-07-20T08:25:53;21.40;97.40
34099;DHT22;20374;49.474;10.944;2023-07-20T08:28:19;21.30;95.90
34099;DHT22;20374;49.474;10.944;2023-07-20T08:30:47;21.20;96.80
34099;DHT22;20374;49.474;10.944;2023-07-20T08:33:14;21.30;96.50
34099;DHT22;20374;49.474;10.944;2023-07-20T08:35:41;21.40;95.60
34099;DHT22;20374;49.474;10.944;2023-07-20T08:38:07;21.30;93.90
34099;DHT22;20374;49.474;10.944;2023-07-20T08:40:45;21.40;94.70
34099;DHT22;20374;49.474;10.944;2023-07-20T08:43:11;21.60;93.90
34099;DHT22;20374;49.474;10.944;2023-07-20T08:45:39;21.80;93.90
34099;DHT22;20374;49.474;10.944;2023-07-20T08:48:07;21.80;93.10
34099;DHT22;20374;49.474;10.944;2023-07-20T08:50:34;21.70;94.00
34099;DHT22;20374;49.474;10.944;2023-07-20T08:53:01;21.90;94.50
34099;DHT22;20374;49.474;10.944;2023-07-20T08:55:28;22.10;93.30
34099;DHT22;20374;49.474;10.944;2023-07-20T08:57:58;22.20;92.60
34099;DHT22;20374;49.474;10.944;2023-07-20T09:00:26;22.00;93.10
34099;DHT22;20374;49.474;10.944;2023-07-20T09:02:54;22.00;92.50
34099;DHT22;20374;49.474;10.944;2023-07-20T09:05:21;22.10;92.70
34099;DHT22;20374;49.474;10.944;2023-07-20T09:07:48;22.30;91.80
34099;DHT22;20374;49.474;10.944;2023-07-20T09:10:14;22.50;92.10
34099;DHT22;20374;49.474;10.944;2023-07-20T09:12:42;22.90;91.80
34099;DHT22;20374;49.474;10.944;2023-07-20T09:15:09;23.10;91.40
34099;DHT22;20374;49.474;10.944;2023-07-20T09:17:35;23.40;90.60
34099;DHT22;20374;49.474;10.944;2023-07-20T09:20:06;23.80;91.40
34099;DHT22;20374;49.474;10.944;2023-07-20T09:22:34;24.80;88.50
34099;DHT22;20374;49.474;10.944;2023-07-20T09:25:00;25.90;81.20
34099;DHT22;20374;49.474;10.944;2023-07-20T09:27:39;26.10;79.50
34099;DHT22;20374;49.474;10.944;2023-07-20T09:30:06;26.70;78.20
34099;DHT22;20374;49.474;10.944;2023-07-20T09:37:47;27.00;71.50
34099;DHT22;20374;49.474;10.944;2023-07-20T09:40:17;26.10;74.00
34099;DHT22;20374;49.474;10.944;2023-07-20T09:42:43;25.20;74.60
34099;DHT22;20374;49.474;10.944;2023-07-20T09:45:09;25.70;74.90
34099;DHT22;20374;49.474;10.944;2023-07-20T09:47:37;26.30;72.90
34099;DHT22;20374;49.474;10.944;2023-07-20T09:50:07;26.50;70.00
34099;DHT22;20374;49.474;10.944;2023-07-20T09:52:42;27.10;67.80
34099;DHT22;20374;49.474;10.944;2023-07-20T09:55:12;27.80;64.50
34099;DHT22;20374;49.474;10.944;2023-07-20T09:57:38;28.10;63.50
34099;DHT22;20374;49.474;10.944;2023-07-20T10:00:06;27.40;65.30
34099;DHT22;20374;49.474;10.944;2023-07-20T10:02:41;25.90;66.50
34099;DHT22;20374;49.474;10.944;2023-07-20T10:05:10;25.60;68.40
34099;DHT22;20374;49.474;10.944;2023-07-20T10:07:40;26.20;66.50
34099;DHT22;20374;49.474;10.944;2023-07-20T10:10:09;26.90;65.90
34099;DHT22;20374;49.474;10.944;2023-07-20T10:12:37;27.50;65.60
34099;DHT22;20374;49.474;10.944;2023-07-20T10:15:12;27.70;62.30
34099;DHT22;20374;49.474;10.944;2023-07-20T10:20:17;28.00;60.20
34099;DHT22;20374;49.474;10.944;2023-07-20T10:22:46;28.60;59.70
34099;DHT22;20374;49.474;10.944;2023-07-20T10:25:14;29.30;59.40
34099;DHT22;20374;49.474;10.944;2023-07-20T10:27:40;29.30;56.90
34099;DHT22;20374;49.474;10.944;2023-07-20T10:30:07;29.30;55.70
34099;DHT22;20374;49.474;10.944;2023-07-20T10:32:33;29.30;56.90
34099;DHT22;20374;49.474;10.944;2023-07-20T10:34:59;29.30;56.70
34099;DHT22;20374;49.474;10.944;2023-07-20T10:37:55;28.80;58.20
34099;DHT22;20374;49.474;10.944;2023-07-20T10:43:07;28.90;57.20
34099;DHT22;20374;49.474;10.944;2023-07-20T10:48:03;29.80;55.80
34099;DHT22;20374;49.474;10.944;2023-07-20T10:50:30;29.30;53.10
34099;DHT22;20374;49.474;10.944;2023-07-20T10:53:13;28.80;56.10
34099;DHT22;20374;49.474;10.944;2023-07-20T10:55:41;27.90;55.60
34099;DHT22;20374;49.474;10.944;2023-07-20T11:00:35;27.20;55.90
34099;DHT22;20374;49.474;10.944;2023-07-20T11:03:02;26.80;55.80
34099;DHT22;20374;49.474;10.944;2023-07-20T11:05:38;26.80;57.00
34099;DHT22;20374;49.474;10.944;2023-07-20T11:08:40;27.20;56.90
34099;DHT22;20374;49.474;10.944;2023-07-20T11:11:30;27.30;57.50
34099;DHT22;20374;49.474;10.944;2023-07-20T11:14:05;28.20;56.10
34099;DHT22;20374;49.474;10.944;2023-07-20T11:16:45;28.80;55.40
34099;DHT22;20374;49.474;10.944;2023-07-20T11:21:46;27.50;56.00
34099;DHT22;20374;49.474;10.944;2023-07-20T11:24:12;27.40;57.50
34099;DHT22;20374;49.474;10.944;2023-07-20T11:26:52;27.80;57.90
34099;DHT22;20374;49.474;10.944;2023-07-20T11:29:20;28.40;57.30
34099;DHT22;20374;49.474;10.944;2023-07-20T11:31:47;28.20;55.50
34099;DHT22;20374;49.474;10.944;2023-07-20T11:34:14;28.20;55.40
34099;DHT22;20374;49.474;10.944;2023-07-20T11:36:42;28.40;54.50
34099;DHT22;20374;49.474;10.944;2023-07-20T11:39:10;28.20;52.60
34099;DHT22;20374;49.474;10.944;2023-07-20T11:41:36;27.70;50.40
34099;DHT22;20374;49.474;10.944;2023-07-20T11:44:02;27.20;52.60
34099;DHT22;20374;49.474;10.944;2023-07-20T11:46:28;26.80;51.60
34099;DHT22;20374;49.474;10.944;2023-07-20T11:48:58;26.40;52.70
34099;DHT22;20374;49.474;10.944;2023-07-20T11:51:31;26.20;52.00
34099;DHT22;20374;49.474;10.944;2023-07-20T11:53:58;26.60;54.20
34099;DHT22;20374;49.474;10.944;2023-07-20T11:56:25;26.80;51.20
34099;DHT22;20374;49.474;10.944;2023-07-20T11:58:55;26.80;51.80
34099;DHT22;20374;49.474;10.944;2023-07-20T12:01:23;27.30;52.30
34099;DHT22;20374;49.474;10.944;2023-07-20T12:03:49;27.80;52.50
34099;DHT22;20374;49.474;10.944;2023-07-20T12:06:15;28.40;51.10
34099;DHT22;20374;49.474;10.944;2023-07-20T12:08:42;28.30;53.70
34099;DHT22;20374;49.474;10.944;2023-07-20T12:11:08;28.10;50.70
34099;DHT22;20374;49.474;10.944;2023-07-20T12:13:44;28.10;50.80
34099;DHT22;20374;49.474;10.944;2023-07-20T12:16:20;27.80;49.60
34099;DHT22;20374;49.474;10.944;2023-07-20T12:18:46;27.70;49.40
34099;DHT22;20374;49.474;10.944;2023-07-20T12:21:12;27.70;51.70
34099;DHT22;20374;49.474;10.944;2023-07-20T12:23:39;27.80;52.50
34099;DHT22;20374;49.474;10.944;2023-07-20T12:26:09;27.80;51.40
34099;DHT22;20374;49.474;10.944;2023-07-20T12:28:39;28.10;51.00
34099;DHT22;20374;49.474;10.944;2023-07-20T12:31:09;27.90;50.90
34099;DHT22;20374;49.474;10.944;2023-07-20T12:33:37;27.90;50.50
34099;DHT22;20374;49.474;10.944;2023-07-20T12:36:04;28.30;52.30
34099;DHT22;20374;49.474;10.944;2023-07-20T12:38:30;28.70;52.40
34099;DHT22;20374;49.474;10.944;2023-07-20T12:40:57;28.90;51.60
34099;DHT22;20374;49.474;10.944;2023-07-20T12:43:24;29.00;52.30
34099;DHT22;20374;49.474;10.944;2023-07-20T12:45:50;29.20;50.30
34099;DHT22;20374;49.474;10.944;2023-07-20T12:48:16;29.30;51.60
34099;DHT22;20374;49.474;10.944;2023-07-20T12:50:42;29.70;51.30
34099;DHT22;20374;49.474;10.944;2023-07-20T12:53:08;30.00;52.10
34099;DHT22;20374;49.474;10.944;2023-07-20T12:55:33;30.00;53.20
34099;DHT22;20374;49.474;10.944;2023-07-20T12:57:59;29.40;52.10
34099;DHT22;20374;49.474;10.944;2023-07-20T13:00:25;28.40;52.70
34099;DHT22;20374;49.474;10.944;2023-07-20T13:02:51;28.30;51.50
34099;DHT22;20374;49.474;10.944;2023-07-20T13:05:18;29.00;51.00
34099;DHT22;20374;49.474;10.944;2023-07-20T13:07:44;29.20;52.50
34099;DHT22;20374;49.474;10.944;2023-07-20T13:10:11;28.90;51.50
34099;DHT22;20374;49.474;10.944;2023-07-20T13:12:37;28.50;50.80
34099;DHT22;20374;49.474;10.944;2023-07-20T13:15:05;28.10;51.60
34099;DHT22;20374;49.474;10.944;2023-07-20T13:17:36;27.70;51.50
34099;DHT22;20374;49.474;10.944;2023-07-20T13:20:03;27.50;53.00
34099;DHT22;20374;49.474;10.944;2023-07-20T13:22:33;27.90;50.90
34099;DHT22;20374;49.474;10.944;2023-07-20T13:24:59;28.30;50.80
34099;DHT22;20374;49.474;10.944;2023-07-20T13:27:26;28.40;51.60
34099;DHT22;20374;49.474;10.944;2023-07-20T13:29:52;28.20;50.30
34099;DHT22;20374;49.474;10.944;2023-07-20T13:32:18;29.00;50.50
34099;DHT22;20374;49.474;10.944;2023-07-20T13:34:44;29.40;49.70
34099;DHT22;20374;49.474;10.944;2023-07-20T13:37:11;29.60;48.60
34099;DHT22;20374;49.474;10.944;2023-07-20T13:39:37;29.80;48.80
34099;DHT22;20374;49.474;10.944;2023-07-20T13:42:05;30.30;47.70
34099;DHT22;20374;49.474;10.944;2023-07-20T13:44:31;30.80;48.20
34099;DHT22;20374;49.474;10.944;2023-07-20T13:46:57;30.60;46.50
34099;DHT22;20374;49.474;10.944;2023-07-20T13:49:23;30.40;48.30
34099;DHT22;20374;49.474;10.944;2023-07-20T13:51:49;30.70;47.50
34099;DHT22;20374;49.474;10.944;2023-07-20T13:54:15;30.50;48.00
34099;DHT22;20374;49.474;10.944;2023-07-20T13:56:41;30.20;47.30
34099;DHT22;20374;49.474;10.944;2023-07-20T13:59:07;30.30;47.60
34099;DHT22;20374;49.474;10.944;2023-07-20T14:01:33;29.40;47.30
34099;DHT22;20374;49.474;10.944;2023-07-20T14:04:02;28.20;50.40
34099;DHT22;20374;49.474;10.944;2023-07-20T14:06:32;28.30;49.90
34099;DHT22;20374;49.474;10.944;2023-07-20T14:08:58;29.20;49.60
34099;DHT22;20374;49.474;10.944;2023-07-20T14:11:25;29.60;50.00
34099;DHT22;20374;49.474;10.944;2023-07-20T14:13:51;29.60;48.70
34099;DHT22;20374;49.474;10.944;2023-07-20T14:16:21;29.70;48.00
34099;DHT22;20374;49.474;10.944;2023-07-20T14:18:48;29.80;48.00
34099;DHT22;20374;49.474;10.944;2023-07-20T14:21:18;29.10;49.10
34099;DHT22;20374;49.474;10.944;2023-07-20T14:23:49;28.80;50.80
34099;DHT22;20374;49.474;10.944;2023-07-20T14:26:18;29.00;50.70
34099;DHT22;20374;49.474;10.944;2023-07-20T14:28:44;28.80;49.50
34099;DHT22;20374;49.474;10.944;2023-07-20T14:31:10;28.10;50.60
34099;DHT22;20374;49.474;10.944;2023-07-20T14:33:36;27.70;49.60
34099;DHT22;20374;49.474;10.944;2023-07-20T14:36:03;27.50;49.60
34099;DHT22;20374;49.474;10.944;2023-07-20T14:38:31;27.60;50.40
34099;DHT22;20374;49.474;10.944;2023-07-20T14:40:57;27.60;49.60
34099;DHT22;20374;49.474;10.944;2023-07-20T14:43:23;28.00;50.10
34099;DHT22;20374;49.474;10.944;2023-07-20T14:45:49;28.00;49.70
34099;DHT22;20374;49.474;10.944;2023-07-20T14:48:15;28.00;50.70
34099;DHT22;20374;49.474;10.944;2023-07-20T14:50:43;27.80;51.60
34099;DHT22;20374;49.474;10.944;2023-07-20T14:53:12;27.20;50.50
34099;DHT22;20374;49.474;10.944;2023-07-20T14:55:38;26.60;52.10
34099;DHT22;20374;49.474;10.944;2023-07-20T14:58:04;26.20;52.60
34099;DHT22;20374;49.474;10.944;2023-07-20T15:00:30;25.90;53.10
34099;DHT22;20374;49.474;10.944;2023-07-20T15:02:56;26.00;53.30
34099;DHT22;20374;49.474;10.944;2023-07-20T15:05:23;26.40;52.70
34099;DHT22;20374;49.474;10.944;2023-07-20T15:07:49;26.90;53.60
34099;DHT22;20374;49.474;10.944;2023-07-20T15:10:16;27.10;53.00
34099;DHT22;20374;49.474;10.944;2023-07-20T15:12:42;27.10;52.60
34099;DHT22;20374;49.474;10.944;2023-07-20T15:15:09;27.10;51.20
34099;DHT22;20374;49.474;10.944;2023-07-20T15:17:36;26.90;51.10
34099;DHT22;20374;49.474;10.944;2023-07-20T15:20:04;26.90;52.20
34099;DHT22;20374;49.474;10.944;2023-07-20T15:22:34;27.00;53.60
34099;DHT22;20374;49.474;10.944;2023-07-20T15:25:05;27.00;53.20
34099;DHT22;20374;49.474;10.944;2023-07-20T15:27:31;27.20;51.50
34099;DHT22;20374;49.474;10.944;2023-07-20T15:29:57;27.20;50.90
34099;DHT22;20374;49.474;10.944;2023-07-20T15:32:23;27.10;49.70
34099;DHT22;20374;49.474;10.944;2023-07-20T15:34:49;26.90;50.00
34099;DHT22;20374;49.474;10.944;2023-07-20T15:37:15;26.60;51.60
34099;DHT22;20374;49.474;10.944;2023-07-20T15:39:41;26.50;50.60
34099;DHT22;20374;49.474;10.944;2023-07-20T15:42:07;26.30;51.00
34099;DHT22;20374;49.474;10.944;2023-07-20T15:44:34;26.30;49.50